Time;durP1;ratioP1;P1;durP2;ratioP2;P2;SDS_P1;SDS_P2;PMS_P1;PMS_P2;Temp;Humidity;BMP_temperature;BMP_pressure;BME280_temperature;BME280_humidity;BME280_pressure;Samples;Min_cycle;Max_cycle;Signal;HPM_P1;HPM_P2
2022/07/26 00:00:00;;;;;;;14.52;8.73;;;;;;;20.42;69.35;99184.94;4842839;29;20099;-83
2022/07/26 00:02:26;;;;;;;11.13;8.32;;;;;;;20.33;69.67;99161.72;4803110;29;20042;-82
2022/07/26 00:04:52;;;;;;;13.02;8.23;;;;;;;20.44;70.01;99180.41;4814873;29;20054;-82
2022/07/26 00:07:18;;;;;;;13.13;8.32;;;;;;;20.32;69.90;99152.94;4828032;29;20112;-82
2022/07/26 00:09:45;;;;;;;9.52;8.07;;;;;;;20.44;69.82;99166.34;4829925;29;20492;-82
2022/07/26 00:12:11;;;;;;;12.02;9.02;;;;;;;20.34;69.95;99152.84;4828233;29;20062;-80
2022/07/26 00:14:37;;;;;;;12.63;8.20;;;;;;;20.49;69.77;99174.00;4829291;29;20141;-83
2022/07/26 00:17:04;;;;;;;9.13;7.55;;;;;;;20.32;69.80;99141.53;4828641;29;20046;-80
2022/07/26 00:19:30;;;;;;;11.35;7.90;;;;;;;20.44;69.84;99156.63;4828905;29;20043;-82
2022/07/26 00:24:41;;;;;;;11.13;8.57;;;;;;;20.47;69.91;99172.28;4828556;29;20084;-83
2022/07/26 00:27:09;;;;;;;10.80;8.30;;;;;;;20.55;69.98;99186.84;4836420;29;20054;-82
2022/07/26 00:29:35;;;;;;;8.85;7.68;;;;;;;20.37;70.18;99151.81;4813750;29;20042;-80
2022/07/26 00:32:01;;;;;;;12.63;8.82;;;;;;;20.26;70.12;99129.53;4837227;29;20041;-80
2022/07/26 00:34:27;;;;;;;10.65;8.40;;;;;;;20.48;70.46;99170.53;4828021;29;20058;-79
2022/07/26 00:36:53;;;;;;;8.88;7.80;;;;;;;20.45;70.41;99160.97;4828123;29;20046;-81
2022/07/26 00:39:20;;;;;;;7.78;6.88;;;;;;;20.47;70.31;99167.00;4828846;29;20111;-81
2022/07/26 00:41:46;;;;;;;11.15;8.43;;;;;;;20.39;70.45;99144.63;4828813;29;20045;-81
2022/07/26 00:44:12;;;;;;;13.43;7.78;;;;;;;20.26;70.61;99133.97;4827686;29;20133;-82
2022/07/26 00:46:42;;;;;;;9.60;7.40;;;;;;;20.49;70.75;99169.59;4810859;29;21583;-80
2022/07/26 00:49:08;;;;;;;8.98;7.63;;;;;;;20.26;70.58;99137.47;4828446;29;20046;-82
2022/07/26 00:51:34;;;;;;;10.55;7.85;;;;;;;20.49;70.78;99166.06;4800860;29;20041;-80
2022/07/26 00:54:01;;;;;;;9.93;7.63;;;;;;;20.22;70.63;99130.66;4826476;29;20087;-80
2022/07/26 00:56:27;;;;;;;11.52;7.20;;;;;;;20.33;70.61;99148.50;4829227;29;20042;-83
2022/07/26 00:58:53;;;;;;;11.23;8.20;;;;;;;20.42;70.92;99168.25;4827368;29;20099;-83
2022/07/26 01:01:19;;;;;;;8.15;7.35;;;;;;;20.46;70.87;99169.75;4832988;29;20046;-80
2022/07/26 01:03:50;;;;;;;11.13;8.35;;;;;;;20.32;70.86;99146.81;4834515;29;20057;-82
2022/07/26 01:06:17;;;;;;;11.75;8.43;;;;;;;20.25;70.81;99132.25;4808346;29;20050;-81
2022/07/26 01:08:43;;;;;;;13.13;9.05;;;;;;;20.27;70.60;99138.31;4831746;29;20049;-80
2022/07/26 01:11:09;;;;;;;12.63;8.80;;;;;;;20.26;70.77;99141.88;4829037;29;20078;-80
2022/07/26 01:13:35;;;;;;;11.98;9.32;;;;;;;20.31;70.87;99153.03;4828423;29;20050;-83
2022/07/26 01:16:02;;;;;;;12.45;9.02;;;;;;;20.41;70.76;99167.38;4828009;29;20042;-82
2022/07/26 01:18:28;;;;;;;11.80;9.50;;;;;;;20.41;71.20;99174.47;4828014;29;20053;-81
2022/07/26 01:20:59;;;;;;;13.10;10.60;;;;;;;20.22;71.17;99143.00;4828303;29;20525;-83
2022/07/26 01:23:25;;;;;;;13.38;10.20;;;;;;;20.06;71.29;99125.44;4826916;29;20549;-81
2022/07/26 01:25:51;;;;;;;16.52;10.93;;;;;;;20.27;71.12;99160.31;4826537;29;20078;-82
2022/07/26 01:28:18;;;;;;;12.80;10.73;;;;;;;20.25;70.98;99156.03;4828842;29;20090;-83
2022/07/26 01:30:44;;;;;;;17.00;10.60;;;;;;;20.20;71.15;99153.66;4800822;29;20130;-82
2022/07/26 01:33:10;;;;;;;15.05;11.55;;;;;;;20.21;71.37;99152.72;4827972;29;20042;-80
2022/07/26 01:35:37;;;;;;;16.65;11.70;;;;;;;20.15;71.23;99153.94;4826606;29;20057;-85
2022/07/26 01:38:03;;;;;;;13.00;10.32;;;;;;;20.24;71.22;99173.69;4827001;29;20049;-81
2022/07/26 01:40:28;;;;;;;14.18;10.45;;;;;;;20.20;71.33;99172.16;4828593;29;20407;-81
2022/07/26 01:42:55;;;;;;;14.00;10.95;;;;;;;20.23;71.40;99176.41;4828903;29;20046;-82
2022/07/26 01:45:21;;;;;;;16.02;11.02;;;;;;;20.32;71.33;99179.34;4825855;29;20045;-83
2022/07/26 01:47:49;;;;;;;13.90;11.02;;;;;;;20.33;71.34;99180.22;4822825;29;20141;-83
2022/07/26 01:50:17;;;;;;;13.82;10.50;;;;;;;20.34;71.59;99194.25;4810219;29;20083;-83
2022/07/26 01:52:44;;;;;;;12.68;10.40;;;;;;;20.26;71.60;99178.88;4826655;29;20133;-83
2022/07/26 01:55:11;;;;;;;10.85;9.30;;;;;;;20.07;71.51;99150.91;4825586;29;20058;-83
2022/07/26 01:57:37;;;;;;;17.58;10.55;;;;;;;20.37;71.52;99204.66;4827926;29;20041;-82
2022/07/26 02:00:05;;;;;;;12.20;9.82;;;;;;;20.30;71.53;99178.56;4827525;29;20054;-83
2022/07/26 02:02:33;;;;;;;11.43;8.95;;;;;;;20.29;71.48;99183.97;4830034;29;20053;-83
2022/07/26 02:05:00;;;;;;;14.70;9.80;;;;;;;20.44;71.48;99212.09;4849425;29;20126;-80
2022/07/26 02:07:32;;;;;;;10.45;9.15;;;;;;;20.40;71.75;99183.31;4839195;29;20045;-80
2022/07/26 02:09:59;;;;;;;13.93;9.02;;;;;;;20.34;71.84;99173.97;4828909;29;20189;-84
2022/07/26 02:12:26;;;;;;;13.57;9.23;;;;;;;20.25;71.69;99153.38;4828885;29;20069;-84
2022/07/26 02:14:52;;;;;;;9.88;8.63;;;;;;;20.51;71.60;99180.03;4838755;29;20054;-80
2022/07/26 02:17:18;;;;;;;13.55;8.90;;;;;;;20.42;71.78;99155.03;4829245;29;20058;-82
2022/07/26 02:19:45;;;;;;;11.52;8.65;;;;;;;20.64;71.51;99177.50;4789802;29;20069;-83
2022/07/26 02:22:11;;;;;;;8.80;7.90;;;;;;;20.56;71.40;99159.50;4811569;29;20479;-82
2022/07/26 02:24:37;;;;;;;10.40;8.90;;;;;;;20.82;71.42;99199.38;4845347;29;20056;-81
2022/07/26 02:27:04;;;;;;;12.73;8.05;;;;;;;20.87;71.57;99206.06;4818150;29;20152;-83
2022/07/26 02:29:31;;;;;;;10.85;9.15;;;;;;;20.83;71.20;99186.06;4847826;29;20049;-81
2022/07/26 02:31:58;;;;;;;11.68;9.10;;;;;;;21.00;71.26;99198.25;4844277;29;20061;-81
2022/07/26 02:34:24;;;;;;;10.60;8.40;;;;;;;20.89;71.20;99168.97;4839593;29;20038;-80
2022/07/26 02:36:51;;;;;;;10.57;8.80;;;;;;;21.13;71.17;99193.03;4833412;29;20050;-81
2022/07/26 02:39:18;;;;;;;10.95;8.65;;;;;;;21.11;71.00;99189.66;4814567;29;20057;-81
2022/07/26 02:41:44;;;;;;;13.50;10.07;;;;;;;21.06;70.68;99176.72;4828014;29;20106;-81
2022/07/26 02:44:11;;;;;;;12.40;9.98;;;;;;;21.30;70.94;99201.72;4832897;29;20130;-83
2022/07/26 02:46:37;;;;;;;11.35;8.57;;;;;;;21.34;71.00;99203.22;4841705;29;20045;-83
2022/07/26 02:49:04;;;;;;;12.20;9.23;;;;;;;21.22;70.57;99168.63;4847710;29;20490;-82
2022/07/26 02:51:30;;;;;;;15.48;10.50;;;;;;;21.43;70.48;99196.50;4848939;29;20024;-80
2022/07/26 02:53:56;;;;;;;14.52;9.48;;;;;;;21.30;70.01;99167.31;4846239;29;20045;-80
2022/07/26 02:56:22;;;;;;;10.70;9.00;;;;;;;21.45;70.09;99176.91;4838008;29;20034;-82
2022/07/26 02:58:48;;;;;;;12.52;9.45;;;;;;;21.75;69.68;99204.19;4836395;29;20109;-82
2022/07/26 03:01:14;;;;;;;13.52;9.30;;;;;;;21.75;69.67;99207.69;4839108;29;20139;-81
2022/07/26 03:03:40;;;;;;;12.18;8.93;;;;;;;21.70;69.77;99185.13;4844821;29;20054;-81
2022/07/26 03:06:07;;;;;;;11.95;9.23;;;;;;;21.76;69.18;99185.56;4844966;29;20037;-81
2022/07/26 03:08:33;;;;;;;10.75;9.48;;;;;;;21.96;69.17;99210.72;4847171;29;20053;-81
2022/07/26 03:10:59;;;;;;;13.75;9.02;;;;;;;22.05;69.31;99213.72;4848190;29;20085;-83
2022/07/26 03:13:25;;;;;;;15.88;8.05;;;;;;;22.20;69.08;99225.09;4851359;29;20157;-81
2022/07/26 03:15:51;;;;;;;12.00;8.25;;;;;;;22.13;68.71;99203.47;4851026;29;20034;-82
2022/07/26 03:18:18;;;;;;;13.52;9.48;;;;;;;22.23;68.36;99209.84;4850426;29;20101;-79
2022/07/26 03:20:44;;;;;;;9.43;8.40;;;;;;;22.44;68.27;99238.53;4849994;29;20057;-83
2022/07/26 03:23:11;;;;;;;14.65;8.73;;;;;;;22.33;67.89;99210.06;4835829;29;20058;-83
2022/07/26 03:25:37;;;;;;;11.70;8.52;;;;;;;22.35;68.03;99197.56;4809994;29;20179;-83
2022/07/26 03:28:04;;;;;;;9.70;8.57;;;;;;;22.55;67.97;99213.94;4828284;29;20046;-80
2022/07/26 03:30:30;;;;;;;10.25;8.07;;;;;;;22.73;67.47;99232.22;4829644;29;20058;-81
2022/07/26 03:32:56;;;;;;;13.00;8.18;;;;;;;22.70;67.29;99206.75;4829728;29;20093;-81
2022/07/26 03:35:22;;;;;;;11.63;8.60;;;;;;;22.91;67.02;99222.13;4828268;29;20046;-83
2022/07/26 03:37:48;;;;;;;12.90;8.73;;;;;;;23.03;66.64;99234.56;4831711;29;20042;-80
2022/07/26 03:40:19;;;;;;;10.45;7.80;;;;;;;23.02;66.68;99211.63;4844887;29;20117;-81
2022/07/26 03:42:47;;;;;;;11.60;8.20;;;;;;;23.27;66.21;99225.88;4851731;29;20046;-82
2022/07/26 03:45:20;;;;;;;9.52;7.35;;;;;;;23.51;65.79;99243.63;4840600;29;20048;-82
2022/07/26 03:47:46;;;;;;;11.35;8.45;;;;;;;23.64;65.13;99243.59;4833475;29;20054;-83
2022/07/26 03:50:15;;;;;;;10.32;7.93;;;;;;;23.76;65.22;99248.03;4831610;29;20395;-84
2022/07/26 03:52:42;;;;;;;12.18;8.02;;;;;;;23.67;64.91;99211.50;4836917;29;20049;-83
2022/07/26 03:57:52;;;;;;;10.18;8.70;;;;;;;23.91;64.38;99200.91;4833999;29;20050;-81
2022/07/26 04:00:31;;;;;;;12.70;8.13;;;;;;;24.16;63.72;99223.03;4810930;29;20042;-85
2022/07/26 04:02:57;;;;;;;10.65;8.73;;;;;;;24.39;63.13;99228.38;4795663;29;20065;-81
2022/07/26 04:05:23;;;;;;;9.65;8.65;;;;;;;24.50;63.29;99229.28;4831607;29;20509;-84
2022/07/26 04:07:50;;;;;;;11.30;9.27;;;;;;;24.44;62.73;99191.69;4829193;29;20046;-82
2022/07/26 04:10:17;;;;;;;15.70;9.10;;;;;;;24.63;62.42;99210.56;4828969;29;20522;-81
2022/07/26 04:12:43;;;;;;;10.15;8.90;;;;;;;24.76;62.08;99209.66;4828372;29;20066;-81
2022/07/26 04:15:09;;;;;;;11.18;9.27;;;;;;;25.03;61.85;99216.47;4835434;29;20074;-81
2022/07/26 04:17:37;;;;;;;12.45;9.05;;;;;;;25.30;61.14;99233.84;4841512;29;20058;-80
2022/07/26 04:20:05;;;;;;;15.13;9.13;;;;;;;25.15;60.87;99206.66;4831451;29;20145;-80
2022/07/26 04:22:32;;;;;;;10.30;8.45;;;;;;;25.41;60.65;99239.19;4814323;29;20069;-81
2022/07/26 04:24:58;;;;;;;11.00;8.40;;;;;;;25.40;60.14;99213.53;4824720;29;20156;-80
2022/07/26 04:27:25;;;;;;;9.15;8.23;;;;;;;25.54;59.99;99220.44;4801521;29;20691;-82
2022/07/26 04:29:54;;;;;;;13.07;8.57;;;;;;;25.67;59.63;99215.81;4827274;29;20073;-84
2022/07/26 04:32:21;;;;;;;11.40;8.93;;;;;;;25.65;58.98;99191.09;4826731;29;20054;-83
2022/07/26 04:34:47;;;;;;;12.27;8.45;;;;;;;25.94;59.35;99213.66;4829112;29;20049;-84
2022/07/26 04:37:13;;;;;;;10.93;7.93;;;;;;;26.20;58.53;99222.19;4817069;29;20122;-85
2022/07/26 04:39:39;;;;;;;9.35;7.75;;;;;;;26.20;58.14;99194.69;4812884;29;20047;-82
2022/07/26 04:42:06;;;;;;;10.73;7.93;;;;;;;26.42;58.05;99199.88;4830639;29;20050;-83
2022/07/26 04:44:32;;;;;;;10.82;7.82;;;;;;;26.69;57.22;99224.38;4812857;29;20044;-84
2022/07/26 04:46:58;;;;;;;11.38;7.93;;;;;;;26.66;56.82;99201.44;4812657;29;20042;-83
2022/07/26 04:49:25;;;;;;;10.18;7.63;;;;;;;26.89;56.91;99222.66;4826137;29;20129;-85
2022/07/26 04:51:51;;;;;;;11.30;7.85;;;;;;;26.96;55.95;99222.97;4828212;29;20054;-80
2022/07/26 04:54:21;;;;;;;13.95;7.00;;;;;;;27.06;56.14;99214.03;4828893;29;20050;-81
2022/07/26 04:56:48;;;;;;;9.52;7.82;;;;;;;27.33;55.41;99217.91;4829026;29;20038;-80
2022/07/26 04:59:16;;;;;;;10.23;7.40;;;;;;;27.48;54.88;99215.75;4828398;29;20046;-81
2022/07/26 05:01:43;;;;;;;9.25;7.05;;;;;;;27.62;54.50;99198.50;4826512;29;20149;-81
2022/07/26 05:04:09;;;;;;;9.45;7.38;;;;;;;28.03;54.24;99226.94;4826741;29;20509;-80
2022/07/26 05:06:35;;;;;;;10.25;7.88;;;;;;;27.96;53.59;99191.91;4824998;29;20052;-81
2022/07/26 05:09:02;;;;;;;13.93;8.63;;;;;;;28.02;52.76;99209.19;4827746;29;20128;-84
2022/07/26 05:11:28;;;;;;;11.70;7.25;;;;;;;28.01;52.74;99191.47;4829127;29;20102;-83
2022/07/26 05:13:54;;;;;;;11.23;7.93;;;;;;;28.20;52.60;99215.56;4831275;29;20042;-83
2022/07/26 05:16:20;;;;;;;10.60;7.57;;;;;;;28.31;51.78;99197.69;4846686;29;20118;-86
2022/07/26 05:18:46;;;;;;;10.05;7.72;;;;;;;28.64;51.97;99235.63;4842104;29;20074;-87
2022/07/26 05:21:12;;;;;;;9.18;7.20;;;;;;;28.60;51.38;99207.47;4830412;29;20065;-85
2022/07/26 05:23:39;;;;;;;7.90;7.10;;;;;;;28.82;51.02;99206.34;4829467;29;20053;-86
2022/07/26 05:26:05;;;;;;;9.77;7.60;;;;;;;29.03;50.37;99219.47;4828375;29;20057;-82
2022/07/26 05:28:33;;;;;;;9.25;7.65;;;;;;;29.35;50.04;99214.72;4827107;29;20042;-84
2022/07/26 05:31:00;;;;;;;10.00;7.53;;;;;;;29.61;48.80;99199.63;4826244;29;20575;-81
2022/07/26 05:33:26;;;;;;;11.65;7.60;;;;;;;30.04;48.65;99223.19;4827891;29;20105;-82
2022/07/26 05:35:52;;;;;;;9.20;7.40;;;;;;;30.32;48.20;99215.91;4832643;29;20058;-81
2022/07/26 05:38:18;;;;;;;10.60;8.32;;;;;;;30.45;47.64;99188.66;4827732;29;20412;-84
2022/07/26 05:40:44;;;;;;;12.60;7.32;;;;;;;30.65;46.69;99188.47;4803487;29;20061;-84
2022/07/26 05:43:10;;;;;;;9.05;7.65;;;;;;;30.86;46.17;99193.44;4824761;29;20053;-82
2022/07/26 05:45:36;;;;;;;8.73;7.00;;;;;;;31.48;46.41;99226.47;4827271;29;20049;-84
2022/07/26 05:48:03;;;;;;;10.30;7.65;;;;;;;32.30;45.21;99204.31;4811776;29;20072;-83
2022/07/26 05:50:29;;;;;;;9.35;7.22;;;;;;;33.82;43.55;99186.41;4826912;29;20038;-83
2022/07/26 05:52:55;;;;;;;11.95;6.90;;;;;;;35.67;40.83;99214.72;4811117;29;20043;-86
2022/07/26 05:55:24;;;;;;;9.32;7.32;;;;;;;36.78;37.92;99220.72;4813997;29;20142;-81
2022/07/26 05:57:50;;;;;;;9.07;7.53;;;;;;;38.00;35.82;99193.06;4825844;29;20132;-83
2022/07/26 06:00:17;;;;;;;10.52;7.63;;;;;;;39.19;33.41;99197.69;4811236;29;20128;-82
2022/07/26 06:02:43;;;;;;;9.30;6.82;;;;;;;40.07;32.18;99211.66;4826759;29;20306;-83
2022/07/26 06:05:09;;;;;;;9.43;7.18;;;;;;;41.20;30.30;99229.91;4830424;29;20491;-83
2022/07/26 06:07:35;;;;;;;9.13;7.28;;;;;;;42.03;29.12;99229.44;4830127;29;20046;-82
2022/07/26 06:10:03;;;;;;;7.32;6.50;;;;;;;42.98;27.80;99229.47;4832841;29;20509;-79
2022/07/26 06:12:29;;;;;;;8.80;7.47;;;;;;;43.64;26.07;99223.69;4830968;29;20058;-80
2022/07/26 06:14:59;;;;;;;7.50;6.75;;;;;;;44.31;25.58;99216.63;4816114;29;20463;-81
2022/07/26 06:17:28;;;;;;;7.47;6.78;;;;;;;44.87;24.07;99243.25;4828895;29;20087;-83
2022/07/26 06:19:55;;;;;;;;;;;;;;;45.32;23.86;99224.88;4826246;29;20081;-83
2022/07/26 06:22:24;;;;;;;9.05;6.97;;;;;;;45.86;24.01;99224.03;4827139;29;20320;-81
2022/07/26 06:24:50;;;;;;;9.20;7.15;;;;;;;46.36;22.35;99203.81;4831261;29;20419;-84
2022/07/26 06:27:20;;;;;;;11.65;8.20;;;;;;;46.71;21.26;99202.41;4819601;29;20061;-83
2022/07/26 06:29:48;;;;;;;14.40;9.20;;;;;;;47.05;20.79;99226.78;4825094;29;20046;-84
2022/07/26 06:32:15;;;;;;;8.68;7.50;;;;;;;47.57;20.00;99200.25;4828209;29;20419;-83
2022/07/26 06:34:41;;;;;;;14.48;8.02;;;;;;;48.23;19.36;99223.41;4829002;29;20090;-84
2022/07/26 06:37:07;;;;;;;13.25;7.65;;;;;;;48.45;18.57;99197.47;4836933;29;20038;-80
2022/07/26 06:39:33;;;;;;;8.38;7.25;;;;;;;48.86;18.36;99193.78;4836732;29;20050;-81
2022/07/26 06:41:59;;;;;;;10.93;7.85;;;;;;;49.25;17.91;99189.47;4838205;29;20050;-80
2022/07/26 06:44:30;;;;;;;12.07;7.73;;;;;;;49.73;16.98;99170.34;4826934;29;20050;-82
2022/07/26 06:46:56;;;;;;;16.45;8.93;;;;;;;50.38;16.66;99207.06;4840011;29;20506;-80
2022/07/26 06:49:22;;;;;;;13.57;8.50;;;;;;;50.62;16.39;99189.69;4841319;29;20053;-81
2022/07/26 06:51:48;;;;;;;22.67;9.60;;;;;;;50.93;15.80;99201.22;4839985;29;20077;-80
2022/07/26 06:54:15;;;;;;;8.80;6.90;;;;;;;51.25;15.52;99209.13;4828454;29;21027;-82
2022/07/26 06:56:41;;;;;;;11.65;6.68;;;;;;;51.72;15.46;99212.00;4811640;29;20080;-83
2022/07/26 06:59:07;;;;;;;8.20;7.03;;;;;;;52.10;14.57;99193.34;4838833;29;20056;-81
2022/07/26 07:01:33;;;;;;;11.18;7.20;;;;;;;52.16;14.80;99177.41;4825590;29;20590;-78
2022/07/26 07:03:59;;;;;;;7.60;7.00;;;;;;;52.34;14.78;99209.00;4804430;29;20181;-85
2022/07/26 07:06:26;;;;;;;7.85;7.15;;;;;;;52.20;14.15;99197.03;4833895;29;20542;-78
2022/07/26 07:08:52;;;;;;;7.90;6.90;;;;;;;52.53;14.21;99206.13;4823166;29;20042;-83
2022/07/26 07:11:18;;;;;;;13.15;8.85;;;;;;;52.48;13.94;99192.38;4790071;29;20416;-83
2022/07/26 07:13:45;;;;;;;23.77;11.30;;;;;;;52.65;13.02;99211.19;4794367;29;20046;-82
2022/07/26 07:16:11;;;;;;;19.08;8.98;;;;;;;53.12;13.24;99197.16;4832591;29;20057;-82
2022/07/26 07:18:37;;;;;;;12.07;7.88;;;;;;;53.68;12.93;99212.84;4824628;29;20141;-83
2022/07/26 07:21:03;;;;;;;23.48;9.60;;;;;;;53.37;12.78;99200.50;4826246;29;20046;-82
2022/07/26 07:23:29;;;;;;;14.20;8.30;;;;;;;53.63;12.44;99201.84;4828541;29;20042;-80
2022/07/26 07:25:56;;;;;;;8.90;7.50;;;;;;;53.58;12.81;99200.78;4829169;29;20061;-80
2022/07/26 07:28:22;;;;;;;8.07;7.38;;;;;;;53.81;12.43;99198.03;4807701;29;20096;-80
2022/07/26 07:30:49;;;;;;;9.65;7.55;;;;;;;54.04;12.14;99209.97;4826203;29;20133;-81
2022/07/26 07:33:16;;;;;;;10.80;7.00;;;;;;;54.12;12.14;99177.78;4827089;29;20091;-83
2022/07/26 07:35:42;;;;;;;11.57;7.03;;;;;;;54.46;12.38;99200.50;4827012;29;20094;-82
2022/07/26 07:38:09;;;;;;;23.27;7.60;;;;;;;54.82;12.07;99201.44;4830663;29;20413;-82
2022/07/26 07:40:35;;;;;;;11.77;7.07;;;;;;;54.85;11.94;99198.81;4830429;29;20452;-83
2022/07/26 07:43:02;;;;;;;14.95;7.68;;;;;;;55.38;11.56;99179.41;4830303;29;20081;-80
2022/07/26 07:45:28;;;;;;;7.13;6.43;;;;;;;56.08;10.92;99190.41;4843533;29;20050;-82
2022/07/26 07:47:54;;;;;;;20.90;8.48;;;;;;;56.46;10.44;99207.50;4827574;29;20507;-82
2022/07/26 07:50:21;;;;;;;15.85;7.97;;;;;;;56.39;10.94;99194.88;4828111;29;21059;-81
2022/07/26 07:52:47;;;;;;;53.33;10.55;;;;;;;56.44;10.61;99213.41;4824137;29;20045;-80
2022/07/26 07:55:13;;;;;;;8.90;6.95;;;;;;;56.12;9.94;99179.41;4825959;29;20095;-81
2022/07/26 07:57:40;;;;;;;19.75;7.85;;;;;;;55.76;10.42;99197.38;4828955;29;20029;-80
2022/07/26 08:00:07;;;;;;;8.23;7.50;;;;;;;56.04;10.87;99208.97;4828871;29;20049;-82
2022/07/26 08:02:37;;;;;;;9.43;8.63;;;;;;;55.16;10.40;99197.06;4817736;29;20046;-80
2022/07/26 08:05:06;;;;;;;16.75;8.52;;;;;;;55.05;11.36;99197.41;4823545;29;20070;-80
2022/07/26 08:07:33;;;;;;;11.85;7.47;;;;;;;55.28;11.15;99200.06;4802862;29;20049;-81
2022/07/26 08:09:59;;;;;;;12.13;7.47;;;;;;;55.45;10.93;99199.19;4827386;29;20041;-82
2022/07/26 08:12:25;;;;;;;8.68;7.20;;;;;;;55.75;9.93;99190.16;4838452;29;20061;-81
2022/07/26 08:14:52;;;;;;;9.20;8.02;;;;;;;55.86;10.54;99207.34;4832177;29;20061;-81
2022/07/26 08:17:18;;;;;;;9.05;8.27;;;;;;;55.94;10.11;99212.94;4830605;29;20038;-81
2022/07/26 08:19:44;;;;;;;8.75;7.75;;;;;;;56.11;10.64;99211.25;4812772;29;20082;-79
2022/07/26 08:22:10;;;;;;;8.98;8.25;;;;;;;56.26;9.78;99199.53;4828746;29;20053;-82
2022/07/26 08:24:36;;;;;;;8.88;8.18;;;;;;;56.62;10.20;99207.75;4846260;29;20042;-81
2022/07/26 08:27:03;;;;;;;8.68;7.80;;;;;;;57.09;9.82;99199.22;4835460;29;20045;-82
2022/07/26 08:29:29;;;;;;;8.52;7.65;;;;;;;57.13;9.17;99222.53;4798668;29;20042;-81
2022/07/26 08:31:55;;;;;;;8.32;7.70;;;;;;;56.91;10.01;99211.69;4829224;29;20038;-80
2022/07/26 08:34:21;;;;;;;10.23;9.15;;;;;;;57.06;9.91;99219.44;4828746;29;21195;-81
2022/07/26 08:36:47;;;;;;;9.07;8.10;;;;;;;57.28;9.33;99214.69;4827572;29;20044;-80
2022/07/26 08:39:14;;;;;;;8.35;7.50;;;;;;;57.19;9.07;99202.81;4831919;29;20054;-82
2022/07/26 08:41:41;;;;;;;8.23;7.55;;;;;;;56.88;9.39;99210.41;4829443;29;20132;-81
2022/07/26 08:44:10;;;;;;;8.82;8.00;;;;;;;57.15;9.70;99220.22;4814055;29;20046;-81
2022/07/26 08:46:40;;;;;;;;;;;;;;;57.27;9.34;99215.88;4828493;29;20098;-81
2022/07/26 08:49:11;;;;;;;8.43;7.72;;;;;;;56.60;10.46;99196.94;4812503;29;20281;-83
2022/07/26 08:51:42;;;;;;;9.13;8.25;;;;;;;56.58;9.60;99207.63;4828906;29;20046;-81
2022/07/26 08:54:11;;;;;;;8.23;7.50;;;;;;;56.73;10.02;99187.47;4830412;29;20461;-82
2022/07/26 08:56:48;;;;;;;8.05;7.28;;;;;;;57.24;9.16;99213.78;4820986;29;20109;-81
2022/07/26 08:59:16;;;;;;;8.30;7.45;;;;;;;57.13;9.86;99216.94;4838238;29;20099;-80
2022/07/26 09:02:11;;;;;;;7.82;7.13;;;;;;;56.15;9.65;99206.63;4835960;29;20046;-81
2022/07/26 09:04:45;;;;;;;8.02;7.30;;;;;;;55.93;9.90;99189.00;4840525;29;20050;-80
2022/07/26 09:07:17;;;;;;;10.18;8.52;;;;;;;56.18;9.85;99194.78;4818838;29;20050;-81
2022/07/26 09:09:56;;;;;;;7.72;7.13;;;;;;;56.04;9.73;99208.16;4841672;29;20050;-82
2022/07/26 09:12:23;;;;;;;8.77;7.97;;;;;;;55.50;10.33;99212.16;4845843;29;20074;-82
2022/07/26 09:15:07;;;;;;;8.18;7.53;;;;;;;55.53;10.18;99201.16;4842299;29;20046;-80
2022/07/26 09:17:48;;;;;;;7.82;7.13;;;;;;;56.06;10.12;99192.69;4840457;29;20034;-80
2022/07/26 09:20:19;;;;;;;8.00;7.40;;;;;;;56.71;9.31;99209.34;4840800;29;20050;-81
2022/07/26 09:23:12;;;;;;;8.98;8.15;;;;;;;57.19;9.57;99213.97;4839080;29;20046;-84
2022/07/26 09:25:45;;;;;;;8.50;7.70;;;;;;;57.72;8.54;99194.75;4835533;29;20190;-80
2022/07/26 09:28:21;;;;;;;8.25;7.65;;;;;;;58.24;9.19;99221.31;4821135;29;20038;-81
2022/07/26 09:30:54;;;;;;;8.80;7.97;;;;;;;57.65;9.42;99195.31;4836401;29;20117;-82
2022/07/26 09:33:21;;;;;;;8.40;7.70;;;;;;;57.37;9.45;99201.47;4830499;29;20053;-82
2022/07/26 09:36:07;;;;;;;8.50;7.80;;;;;;;57.86;8.72;99209.22;4826135;29;20121;-82
2022/07/26 09:38:44;;;;;;;9.15;8.35;;;;;;;57.80;8.04;99202.25;4845662;29;20049;-82
2022/07/26 09:41:20;;;;;;;7.95;7.32;;;;;;;57.54;8.45;99192.13;4819354;29;20055;-85
2022/07/26 09:43:57;;;;;;;8.02;7.38;;;;;;;56.27;9.09;99198.41;4839668;29;20042;-83
2022/07/26 09:46:34;;;;;;;8.15;7.35;;;;;;;55.93;9.60;99204.91;4842273;29;20046;-85
2022/07/26 09:49:29;;;;;;;7.90;7.38;;;;;;;55.62;10.33;99184.47;4813811;29;20055;-84
2022/07/26 09:51:55;;;;;;;8.77;7.63;;;;;;;55.27;9.86;99178.91;4842771;29;20061;-83
2022/07/26 09:54:32;;;;;;;8.32;7.72;;;;;;;55.23;10.22;99192.63;4841817;29;20793;-83
2022/07/26 09:56:59;;;;;;;7.90;7.30;;;;;;;56.03;9.80;99200.94;4838866;29;20510;-85
2022/07/26 09:59:27;;;;;;;8.15;7.50;;;;;;;55.87;10.19;99190.28;4842746;29;20083;-83
2022/07/26 10:01:54;;;;;;;8.65;7.95;;;;;;;53.97;10.34;99169.84;4846913;29;20105;-84
2022/07/26 10:04:25;;;;;;;8.90;8.20;;;;;;;51.64;11.62;99175.56;4846893;29;20049;-82
2022/07/26 10:06:58;;;;;;;8.85;8.02;;;;;;;51.51;12.54;99193.75;4797358;29;20126;-83
2022/07/26 10:09:30;;;;;;;9.23;8.43;;;;;;;52.09;11.97;99163.13;4799789;29;20049;-84
2022/07/26 10:12:04;;;;;;;8.32;7.72;;;;;;;52.39;12.24;99181.19;4845964;29;20072;-84
2022/07/26 10:14:50;;;;;;;8.75;7.95;;;;;;;53.03;11.56;99184.31;4839268;29;20114;-82
2022/07/26 10:17:28;;;;;;;8.40;7.78;;;;;;;52.12;11.60;99195.78;4848979;29;20041;-84
2022/07/26 10:20:00;;;;;;;8.40;7.80;;;;;;;49.97;13.09;99154.94;4839138;29;20046;-82
2022/07/26 10:22:35;;;;;;;8.20;7.60;;;;;;;49.91;13.12;99175.44;4840301;29;20042;-81
2022/07/26 10:25:17;;;;;;;9.50;7.65;;;;;;;50.78;13.08;99185.59;4817007;29;20038;-81
2022/07/26 10:28:00;;;;;;;9.02;8.20;;;;;;;50.31;13.21;99121.69;4816072;29;20065;-80
2022/07/26 10:30:36;;;;;;;8.60;7.78;;;;;;;49.92;12.89;99175.19;4816136;29;20050;-81
2022/07/26 10:33:09;;;;;;;7.88;7.28;;;;;;;49.86;13.69;99163.34;4851354;29;20109;-82
2022/07/26 10:35:43;;;;;;;9.45;8.40;;;;;;;49.33;13.57;99147.41;4837287;29;20098;-82
2022/07/26 10:38:28;;;;;;;9.07;8.18;;;;;;;47.73;14.44;99132.22;4819636;29;20050;-81
2022/07/26 10:41:06;;;;;;;8.95;7.40;;;;;;;46.66;14.70;99117.97;4832916;29;20045;-82
2022/07/26 10:43:36;;;;;;;9.97;7.30;;;;;;;46.07;16.15;99171.22;4830847;29;20053;-84
2022/07/26 10:46:30;;;;;;;13.90;8.40;;;;;;;45.06;17.03;99169.66;4841048;29;20335;-80
2022/07/26 10:49:55;;;;;;;8.73;8.05;;;;;;;43.96;17.46;99164.78;4825846;29;20054;-82
2022/07/26 10:52:29;;;;;;;9.93;7.55;;;;;;;43.03;18.50;99153.84;4830977;29;20101;-83
2022/07/26 10:54:58;;;;;;;9.45;8.05;;;;;;;42.48;19.02;99173.41;4856689;29;20038;-82
2022/07/26 10:57:35;;;;;;;9.53;8.60;;;;;;;41.48;19.77;99138.44;4839830;29;20289;-84
2022/07/26 11:00:24;;;;;;;11.10;8.38;;;;;;;40.32;20.78;99132.69;4820067;29;20048;-80
2022/07/26 11:02:57;;;;;;;10.07;8.68;;;;;;;39.89;21.82;99150.66;4842037;29;20098;-82
2022/07/26 11:05:29;;;;;;;9.23;8.48;;;;;;;39.46;21.81;99140.47;4828802;29;20097;-83
2022/07/26 11:08:06;;;;;;;9.15;7.75;;;;;;;39.27;22.25;99153.94;4812882;29;20431;-83
2022/07/26 11:10:41;;;;;;;9.50;8.70;;;;;;;38.88;22.59;99158.50;4831044;29;20064;-84
2022/07/26 11:13:12;;;;;;;9.63;8.60;;;;;;;38.55;23.67;99157.53;4832858;29;20459;-82
2022/07/26 11:15:41;;;;;;;8.80;8.02;;;;;;;38.09;23.71;99129.34;4808286;29;20141;-82
2022/07/26 11:18:11;;;;;;;9.30;8.35;;;;;;;38.23;23.88;99153.78;4813676;29;20049;-84
2022/07/26 11:20:38;;;;;;;10.13;9.23;;;;;;;37.92;24.49;99142.53;4826059;29;20061;-82
2022/07/26 11:23:38;;;;;;;8.40;7.70;;;;;;;37.80;24.78;99153.16;4825651;29;20058;-83
2022/07/26 11:26:19;;;;;;;9.52;8.73;;;;;;;37.41;24.72;99146.56;4833994;29;20097;-83
2022/07/26 11:28:58;;;;;;;10.27;9.13;;;;;;;37.28;24.97;99143.81;4841990;29;20054;-85
2022/07/26 11:31:40;;;;;;;9.35;8.35;;;;;;;37.08;25.62;99142.72;4848823;29;20045;-83
2022/07/26 11:34:14;;;;;;;9.75;8.85;;;;;;;36.69;26.09;99146.88;4848766;29;20103;-83
2022/07/26 11:36:42;;;;;;;11.13;8.68;;;;;;;36.32;25.66;99114.56;4814852;29;20037;-82
2022/07/26 11:39:14;;;;;;;9.85;8.88;;;;;;;36.24;26.53;99130.97;4841786;29;20535;-82
2022/07/26 11:41:43;;;;;;;10.82;9.60;;;;;;;35.97;26.80;99105.59;4845799;29;20053;-83